sensor_id;sensor_type;location;lat;lon;timestamp;pressure;altitude;pressure_sealevel;temperature;humidity
62420;BME280;48460;51.616;5.426;2022-12-18T00:00:42;102767.53;;;-5.51;100.00
62420;BME280;48460;51.616;5.426;2022-12-18T00:03:14;102770.09;;;-5.51;100.00
62420;BME280;48460;51.616;5.426;2022-12-18T00:05:54;102759.84;;;-5.51;100.00
62420;BME280;48460;51.616;5.426;2022-12-18T00:08:28;102751.97;;;-5.55;100.00
62420;BME280;48460;51.616;5.426;2022-12-18T00:11:12;102767.19;;;-5.58;100.00
62420;BME280;48460;51.616;5.426;2022-12-18T00:13:58;102764.34;;;-5.64;100.00
62420;BME280;48460;51.616;5.426;2022-12-18T00:16:28;102760.47;;;-5.74;100.00
62420;BME280;48460;51.616;5.426;2022-12-18T00:18:59;102735.22;;;-5.86;100.00
62420;BME280;48460;51.616;5.426;2022-12-18T00:21:33;102726.44;;;-5.91;100.00
62420;BME280;48460;51.616;5.426;2022-12-18T00:24:01;102729.66;;;-5.95;100.00
62420;BME280;48460;51.616;5.426;2022-12-18T00:26:32;102735.69;;;-5.94;100.00
62420;BME280;48460;51.616;5.426;2022-12-18T00:29:02;102735.56;;;-5.98;100.00
62420;BME280;48460;51.616;5.426;2022-12-18T00:31:34;102732.16;;;-5.97;100.00
62420;BME280;48460;51.616;5.426;2022-12-18T00:34:00;102722.75;;;-5.98;100.00
62420;BME280;48460;51.616;5.426;2022-12-18T00:36:31;102717.63;;;-5.98;100.00
62420;BME280;48460;51.616;5.426;2022-12-18T00:39:00;102726.81;;;-6.01;100.00
62420;BME280;48460;51.616;5.426;2022-12-18T00:41:26;102728.47;;;-6.03;100.00
62420;BME280;48460;51.616;5.426;2022-12-18T00:44:15;102730.94;;;-6.05;100.00
62420;BME280;48460;51.616;5.426;2022-12-18T00:46:53;102719.59;;;-6.10;100.00
62420;BME280;48460;51.616;5.426;2022-12-18T00:49:28;102723.84;;;-6.10;100.00
62420;BME280;48460;51.616;5.426;2022-12-18T00:51:58;102714.31;;;-6.13;100.00
62420;BME280;48460;51.616;5.426;2022-12-18T00:54:29;102710.75;;;-6.16;100.00
62420;BME280;48460;51.616;5.426;2022-12-18T00:56:54;102708.91;;;-6.19;100.00
62420;BME280;48460;51.616;5.426;2022-12-18T00:59:20;102713.25;;;-6.18;100.00
62420;BME280;48460;51.616;5.426;2022-12-18T01:01:51;102709.88;;;-6.17;100.00
62420;BME280;48460;51.616;5.426;2022-12-18T01:04:34;102724.22;;;-6.21;100.00
62420;BME280;48460;51.616;5.426;2022-12-18T01:07:07;102726.50;;;-6.27;100.00
62420;BME280;48460;51.616;5.426;2022-12-18T01:09:32;102735.63;;;-6.32;100.00
62420;BME280;48460;51.616;5.426;2022-12-18T01:12:01;102745.81;;;-6.33;100.00
62420;BME280;48460;51.616;5.426;2022-12-18T01:14:26;102744.78;;;-6.37;100.00
62420;BME280;48460;51.616;5.426;2022-12-18T01:16:53;102739.44;;;-6.42;100.00
62420;BME280;48460;51.616;5.426;2022-12-18T01:19:30;102749.69;;;-6.42;100.00
62420;BME280;48460;51.616;5.426;2022-12-18T01:21:58;102752.31;;;-6.40;100.00
62420;BME280;48460;51.616;5.426;2022-12-18T01:24:34;102748.88;;;-6.40;100.00
62420;BME280;48460;51.616;5.426;2022-12-18T01:27:03;102742.88;;;-6.41;100.00
62420;BME280;48460;51.616;5.426;2022-12-18T01:29:40;102737.63;;;-6.44;100.00
62420;BME280;48460;51.616;5.426;2022-12-18T01:32:13;102748.53;;;-6.48;100.00
62420;BME280;48460;51.616;5.426;2022-12-18T01:34:41;102746.84;;;-6.48;100.00
62420;BME280;48460;51.616;5.426;2022-12-18T01:37:09;102728.81;;;-6.49;100.00
62420;BME280;48460;51.616;5.426;2022-12-18T01:39:35;102728.47;;;-6.57;100.00
62420;BME280;48460;51.616;5.426;2022-12-18T01:42:12;102724.81;;;-6.62;100.00
62420;BME280;48460;51.616;5.426;2022-12-18T01:50:29;102720.50;;;-6.63;100.00
62420;BME280;48460;51.616;5.426;2022-12-18T01:53:00;102730.81;;;-6.61;100.00
62420;BME280;48460;51.616;5.426;2022-12-18T01:55:45;102735.91;;;-6.61;100.00
62420;BME280;48460;51.616;5.426;2022-12-18T01:58:12;102734.09;;;-6.64;100.00
62420;BME280;48460;51.616;5.426;2022-12-18T02:00:42;102725.38;;;-6.68;100.00
62420;BME280;48460;51.616;5.426;2022-12-18T02:03:11;102731.38;;;-6.67;100.00
62420;BME280;48460;51.616;5.426;2022-12-18T02:05:47;102729.69;;;-6.67;100.00
62420;BME280;48460;51.616;5.426;2022-12-18T02:08:34;102727.88;;;-6.69;100.00
62420;BME280;48460;51.616;5.426;2022-12-18T02:11:29;102713.97;;;-6.74;100.00
62420;BME280;48460;51.616;5.426;2022-12-18T02:14:18;102715.81;;;-6.72;100.00
62420;BME280;48460;51.616;5.426;2022-12-18T02:17:10;102716.38;;;-6.77;100.00
62420;BME280;48460;51.616;5.426;2022-12-18T02:23:04;102711.75;;;-6.84;100.00
62420;BME280;48460;51.616;5.426;2022-12-18T02:28:25;102717.22;;;-6.95;100.00
62420;BME280;48460;51.616;5.426;2022-12-18T02:30:59;102718.97;;;-6.94;100.00
62420;BME280;48460;51.616;5.426;2022-12-18T02:33:27;102724.25;;;-6.91;100.00
62420;BME280;48460;51.616;5.426;2022-12-18T02:35:56;102721.69;;;-6.91;100.00
62420;BME280;48460;51.616;5.426;2022-12-18T02:38:27;102724.41;;;-6.88;100.00
62420;BME280;48460;51.616;5.426;2022-12-18T02:41:02;102721.84;;;-6.88;100.00
62420;BME280;48460;51.616;5.426;2022-12-18T02:43:39;102715.84;;;-6.88;100.00
62420;BME280;48460;51.616;5.426;2022-12-18T03:01:16;102698.47;;;-6.95;100.00
62420;BME280;48460;51.616;5.426;2022-12-18T03:03:57;102694.88;;;-6.99;100.00
62420;BME280;48460;51.616;5.426;2022-12-18T03:06:35;102696.53;;;-6.99;100.00
62420;BME280;48460;51.616;5.426;2022-12-18T03:09:08;102701.66;;;-6.99;100.00
62420;BME280;48460;51.616;5.426;2022-12-18T03:12:00;102696.63;;;-6.98;100.00
62420;BME280;48460;51.616;5.426;2022-12-18T03:14:50;102682.09;;;-6.99;100.00
62420;BME280;48460;51.616;5.426;2022-12-18T03:17:20;102685.28;;;-7.03;100.00
62420;BME280;48460;51.616;5.426;2022-12-18T03:19:54;102670.75;;;-7.04;100.00
62420;BME280;48460;51.616;5.426;2022-12-18T03:22:27;102681.75;;;-7.05;100.00
62420;BME280;48460;51.616;5.426;2022-12-18T03:25:01;102687.69;;;-7.06;100.00
62420;BME280;48460;51.616;5.426;2022-12-18T03:27:48;102678.41;;;-7.04;100.00
62420;BME280;48460;51.616;5.426;2022-12-18T03:30:25;102679.97;;;-7.07;100.00
62420;BME280;48460;51.616;5.426;2022-12-18T03:35:54;102680.69;;;-7.10;100.00
62420;BME280;48460;51.616;5.426;2022-12-18T03:38:20;102677.31;;;-7.09;100.00
62420;BME280;48460;51.616;5.426;2022-12-18T03:47:21;102675.25;;;-7.16;100.00
62420;BME280;48460;51.616;5.426;2022-12-18T03:50:16;102674.44;;;-7.15;100.00
62420;BME280;48460;51.616;5.426;2022-12-18T03:55:33;102659.69;;;-7.21;100.00
62420;BME280;48460;51.616;5.426;2022-12-18T03:58:10;102658.00;;;-7.20;100.00
62420;BME280;48460;51.616;5.426;2022-12-18T04:00:52;102655.44;;;-7.20;100.00
62420;BME280;48460;51.616;5.426;2022-12-18T04:03:23;102653.69;;;-7.21;100.00
62420;BME280;48460;51.616;5.426;2022-12-18T04:05:51;102647.56;;;-7.25;100.00
62420;BME280;48460;51.616;5.426;2022-12-18T04:08:27;102644.91;;;-7.26;100.00
62420;BME280;48460;51.616;5.426;2022-12-18T04:10:55;102625.34;;;-7.26;100.00
62420;BME280;48460;51.616;5.426;2022-12-18T04:13:28;102629.53;;;-7.28;100.00
62420;BME280;48460;51.616;5.426;2022-12-18T04:16:01;102619.19;;;-7.29;100.00
62420;BME280;48460;51.616;5.426;2022-12-18T04:18:27;102631.84;;;-7.32;100.00
62420;BME280;48460;51.616;5.426;2022-12-18T04:21:04;102639.59;;;-7.31;100.00
62420;BME280;48460;51.616;5.426;2022-12-18T04:23:39;102636.16;;;-7.31;100.00
62420;BME280;48460;51.616;5.426;2022-12-18T04:26:15;102622.47;;;-7.32;100.00
62420;BME280;48460;51.616;5.426;2022-12-18T04:28:44;102624.16;;;-7.32;100.00
62420;BME280;48460;51.616;5.426;2022-12-18T04:31:21;102622.41;;;-7.34;100.00
62420;BME280;48460;51.616;5.426;2022-12-18T04:33:50;102623.22;;;-7.35;100.00
62420;BME280;48460;51.616;5.426;2022-12-18T04:36:18;102631.84;;;-7.32;100.00
62420;BME280;48460;51.616;5.426;2022-12-18T04:38:46;102636.16;;;-7.31;100.00
62420;BME280;48460;51.616;5.426;2022-12-18T04:41:15;102638.47;;;-7.36;100.00
62420;BME280;48460;51.616;5.426;2022-12-18T04:43:46;102646.13;;;-7.36;100.00
62420;BME280;48460;51.616;5.426;2022-12-18T04:46:16;102646.81;;;-7.40;100.00
62420;BME280;48460;51.616;5.426;2022-12-18T04:48:52;102649.19;;;-7.43;100.00
62420;BME280;48460;51.616;5.426;2022-12-18T04:51:20;102650.06;;;-7.43;100.00
62420;BME280;48460;51.616;5.426;2022-12-18T04:53:48;102652.47;;;-7.46;100.00
62420;BME280;48460;51.616;5.426;2022-12-18T04:56:15;102657.44;;;-7.49;100.00
62420;BME280;48460;51.616;5.426;2022-12-18T04:58:52;102666.13;;;-7.45;100.00
62420;BME280;48460;51.616;5.426;2022-12-18T05:01:26;102671.06;;;-7.48;100.00
62420;BME280;48460;51.616;5.426;2022-12-18T05:03:54;102665.09;;;-7.49;100.00
62420;BME280;48460;51.616;5.426;2022-12-18T05:06:31;102672.91;;;-7.46;100.00
62420;BME280;48460;51.616;5.426;2022-12-18T05:09:00;102671.06;;;-7.48;100.00
62420;BME280;48460;51.616;5.426;2022-12-18T05:11:31;102676.34;;;-7.45;100.00
62420;BME280;48460;51.616;5.426;2022-12-18T05:14:03;102669.47;;;-7.46;100.00
62420;BME280;48460;51.616;5.426;2022-12-18T05:16:32;102677.16;;;-7.46;100.00
62420;BME280;48460;51.616;5.426;2022-12-18T05:18:58;102678.03;;;-7.46;100.00
62420;BME280;48460;51.616;5.426;2022-12-18T05:21:38;102682.25;;;-7.46;100.00
62420;BME280;48460;51.616;5.426;2022-12-18T05:24:14;102673.78;;;-7.45;100.00
62420;BME280;48460;51.616;5.426;2022-12-18T05:26:51;102663.56;;;-7.45;100.00
62420;BME280;48460;51.616;5.426;2022-12-18T05:32:32;102661.81;;;-7.46;100.00
62420;BME280;48460;51.616;5.426;2022-12-18T05:35:00;102663.47;;;-7.47;100.00
62420;BME280;48460;51.616;5.426;2022-12-18T05:37:33;102665.09;;;-7.49;100.00
62420;BME280;48460;51.616;5.426;2022-12-18T05:40:03;102663.31;;;-7.50;100.00
62420;BME280;48460;51.616;5.426;2022-12-18T05:45:50;102658.38;;;-7.47;100.00
62420;BME280;48460;51.616;5.426;2022-12-18T05:48:34;102650.69;;;-7.47;100.00
62420;BME280;48460;51.616;5.426;2022-12-18T05:51:16;102638.81;;;-7.46;100.00
62420;BME280;48460;51.616;5.426;2022-12-18T05:53:47;102633.78;;;-7.45;100.00
62420;BME280;48460;51.616;5.426;2022-12-18T05:56:18;102632.97;;;-7.44;100.00
62420;BME280;48460;51.616;5.426;2022-12-18T05:59:06;102621.88;;;-7.44;100.00
62420;BME280;48460;51.616;5.426;2022-12-18T06:05:07;102637.44;;;-7.40;100.00
62420;BME280;48460;51.616;5.426;2022-12-18T06:07:36;102638.16;;;-7.42;100.00
62420;BME280;48460;51.616;5.426;2022-12-18T06:10:05;102636.41;;;-7.43;100.00
62420;BME280;48460;51.616;5.426;2022-12-18T06:12:31;102636.56;;;-7.40;100.00
62420;BME280;48460;51.616;5.426;2022-12-18T06:14:59;102621.97;;;-7.43;100.00
62420;BME280;48460;51.616;5.426;2022-12-18T06:17:31;102626.41;;;-7.39;100.00
62420;BME280;48460;51.616;5.426;2022-12-18T06:19:57;102622.03;;;-7.41;100.00
62420;BME280;48460;51.616;5.426;2022-12-18T06:22:25;102638.06;;;-7.44;100.00
62420;BME280;48460;51.616;5.426;2022-12-18T06:24:58;102644.09;;;-7.43;100.00
62420;BME280;48460;51.616;5.426;2022-12-18T06:27:27;102637.13;;;-7.46;100.00
62420;BME280;48460;51.616;5.426;2022-12-18T06:29:52;102644.81;;;-7.46;100.00
62420;BME280;48460;51.616;5.426;2022-12-18T06:32:20;102647.50;;;-7.43;100.00
62420;BME280;48460;51.616;5.426;2022-12-18T06:34:48;102650.78;;;-7.45;100.00
62420;BME280;48460;51.616;5.426;2022-12-18T06:40:59;102629.53;;;-7.44;100.00
62420;BME280;48460;51.616;5.426;2022-12-18T06:46:49;102620.53;;;-7.54;100.00
62420;BME280;48460;51.616;5.426;2022-12-18T06:52:59;102616.25;;;-7.55;100.00
62420;BME280;48460;51.616;5.426;2022-12-18T06:55:41;102618.53;;;-7.60;100.00
62420;BME280;48460;51.616;5.426;2022-12-18T06:58:07;102616.72;;;-7.62;100.00
62420;BME280;48460;51.616;5.426;2022-12-18T07:00:32;102611.53;;;-7.64;100.00
62420;BME280;48460;51.616;5.426;2022-12-18T07:03:07;102616.56;;;-7.65;100.00
62420;BME280;48460;51.616;5.426;2022-12-18T07:05:41;102611.69;;;-7.61;100.00
62420;BME280;48460;51.616;5.426;2022-12-18T07:08:14;102607.31;;;-7.63;100.00
62420;BME280;48460;51.616;5.426;2022-12-18T07:10:46;102605.56;;;-7.64;100.00
62420;BME280;48460;51.616;5.426;2022-12-18T07:13:16;102601.06;;;-7.68;100.00
62420;BME280;48460;51.616;5.426;2022-12-18T07:15:44;102592.53;;;-7.69;100.00
62420;BME280;48460;51.616;5.426;2022-12-18T07:18:14;102588.09;;;-7.73;100.00
62420;BME280;48460;51.616;5.426;2022-12-18T07:20:42;102588.16;;;-7.71;100.00
62420;BME280;48460;51.616;5.426;2022-12-18T07:23:28;102580.34;;;-7.74;100.00
62420;BME280;48460;51.616;5.426;2022-12-18T07:26:09;102573.69;;;-7.71;100.00
62420;BME280;48460;51.616;5.426;2022-12-18T07:32:24;102552.34;;;-7.73;100.00
62420;BME280;48460;51.616;5.426;2022-12-18T07:35:11;102553.22;;;-7.72;100.00
62420;BME280;48460;51.616;5.426;2022-12-18T07:37:39;102556.53;;;-7.73;100.00
62420;BME280;48460;51.616;5.426;2022-12-18T07:40:08;102557.44;;;-7.73;100.00
62420;BME280;48460;51.616;5.426;2022-12-18T07:42:34;102554.06;;;-7.72;100.00
62420;BME280;48460;51.616;5.426;2022-12-18T07:45:03;102544.81;;;-7.70;100.00
62420;BME280;48460;51.616;5.426;2022-12-18T07:47:29;102543.28;;;-7.66;100.00
62420;BME280;48460;51.616;5.426;2022-12-18T07:49:57;102534.81;;;-7.65;100.00
62420;BME280;48460;51.616;5.426;2022-12-18T07:52:23;102531.50;;;-7.64;100.00
62420;BME280;48460;51.616;5.426;2022-12-18T07:54:48;102517.91;;;-7.63;100.00
62420;BME280;48460;51.616;5.426;2022-12-18T07:57:16;102525.63;;;-7.62;100.00
62420;BME280;48460;51.616;5.426;2022-12-18T07:59:41;102518.19;;;-7.57;100.00
62420;BME280;48460;51.616;5.426;2022-12-18T08:02:07;102523.56;;;-7.52;100.00
62420;BME280;48460;51.616;5.426;2022-12-18T08:04:32;102528.88;;;-7.48;100.00
62420;BME280;48460;51.616;5.426;2022-12-18T08:07:03;102525.75;;;-7.42;100.00
62420;BME280;48460;51.616;5.426;2022-12-18T08:09:33;102525.88;;;-7.39;100.00
62420;BME280;48460;51.616;5.426;2022-12-18T08:11:59;102526.19;;;-7.33;100.00
62420;BME280;48460;51.616;5.426;2022-12-18T08:14:24;102534.13;;;-7.27;100.00
62420;BME280;48460;51.616;5.426;2022-12-18T08:16:50;102535.31;;;-7.20;100.00
62420;BME280;48460;51.616;5.426;2022-12-18T08:19:15;102536.41;;;-7.15;100.00
62420;BME280;48460;51.616;5.426;2022-12-18T08:21:40;102536.78;;;-7.07;100.00
62420;BME280;48460;51.616;5.426;2022-12-18T08:24:06;102548.31;;;-6.98;100.00
62420;BME280;48460;51.616;5.426;2022-12-18T08:26:31;102546.09;;;-6.90;100.00
62420;BME280;48460;51.616;5.426;2022-12-18T08:28:59;102546.69;;;-6.78;100.00
62420;BME280;48460;51.616;5.426;2022-12-18T08:31:26;102541.19;;;-6.68;100.00
62420;BME280;48460;51.616;5.426;2022-12-18T08:33:52;102549.13;;;-6.61;100.00
62420;BME280;48460;51.616;5.426;2022-12-18T08:36:19;102543.44;;;-6.56;100.00
62420;BME280;48460;51.616;5.426;2022-12-18T08:38:46;102529.94;;;-6.52;100.00
62420;BME280;48460;51.616;5.426;2022-12-18T08:41:14;102523.22;;;-6.50;100.00
62420;BME280;48460;51.616;5.426;2022-12-18T08:43:40;102520.06;;;-6.44;100.00
62420;BME280;48460;51.616;5.426;2022-12-18T08:46:26;102515.97;;;-6.40;100.00
62420;BME280;48460;51.616;5.426;2022-12-18T08:48:53;102510.38;;;-6.32;100.00
62420;BME280;48460;51.616;5.426;2022-12-18T08:51:19;102501.00;;;-6.31;100.00
62420;BME280;48460;51.616;5.426;2022-12-18T08:53:45;102506.38;;;-6.25;100.00
62420;BME280;48460;51.616;5.426;2022-12-18T08:56:14;102517.03;;;-6.16;100.00
62420;BME280;48460;51.616;5.426;2022-12-18T08:58:42;102509.75;;;-6.07;100.00
62420;BME280;48460;51.616;5.426;2022-12-18T09:01:10;102515.06;;;-6.02;100.00
62420;BME280;48460;51.616;5.426;2022-12-18T09:03:36;102504.34;;;-5.93;100.00
62420;BME280;48460;51.616;5.426;2022-12-18T09:06:02;102505.53;;;-5.85;100.00
62420;BME280;48460;51.616;5.426;2022-12-18T09:08:29;102510.16;;;-5.77;100.00
62420;BME280;48460;51.616;5.426;2022-12-18T09:10:54;102514.72;;;-5.69;100.00
62420;BME280;48460;51.616;5.426;2022-12-18T09:13:20;102525.16;;;-5.65;100.00
62420;BME280;48460;51.616;5.426;2022-12-18T09:15:48;102514.25;;;-5.59;100.00
62420;BME280;48460;51.616;5.426;2022-12-18T09:18:18;102517.16;;;-5.52;100.00
62420;BME280;48460;51.616;5.426;2022-12-18T09:20:44;102536.22;;;-5.45;100.00
62420;BME280;48460;51.616;5.426;2022-12-18T09:23:13;102545.91;;;-5.38;100.00
62420;BME280;48460;51.616;5.426;2022-12-18T09:25:39;102547.91;;;-5.31;100.00
62420;BME280;48460;51.616;5.426;2022-12-18T09:28:11;102548.28;;;-5.21;100.00
62420;BME280;48460;51.616;5.426;2022-12-18T09:30:38;102539.00;;;-5.18;100.00
62420;BME280;48460;51.616;5.426;2022-12-18T09:33:10;102531.56;;;-5.12;100.00
62420;BME280;48460;51.616;5.426;2022-12-18T09:35:38;102520.66;;;-5.06;100.00
62420;BME280;48460;51.616;5.426;2022-12-18T09:38:04;102521.72;;;-5.01;100.00
62420;BME280;48460;51.616;5.426;2022-12-18T09:40:35;102508.31;;;-4.94;100.00
62420;BME280;48460;51.616;5.426;2022-12-18T09:43:03;102501.75;;;-4.87;100.00
62420;BME280;48460;51.616;5.426;2022-12-18T09:45:58;102500.28;;;-4.81;100.00
62420;BME280;48460;51.616;5.426;2022-12-18T09:48:34;102488.50;;;-4.75;100.00
62420;BME280;48460;51.616;5.426;2022-12-18T09:51:13;102495.56;;;-4.70;100.00
62420;BME280;48460;51.616;5.426;2022-12-18T09:53:41;102483.72;;;-4.66;100.00
62420;BME280;48460;51.616;5.426;2022-12-18T09:56:17;102472.03;;;-4.58;100.00
62420;BME280;48460;51.616;5.426;2022-12-18T09:58:59;102468.97;;;-4.48;100.00
62420;BME280;48460;51.616;5.426;2022-12-18T10:01:28;102469.41;;;-4.36;100.00
62420;BME280;48460;51.616;5.426;2022-12-18T10:04:01;102482.44;;;-4.31;100.00
62420;BME280;48460;51.616;5.426;2022-12-18T10:06:34;102490.28;;;-4.26;100.00
62420;BME280;48460;51.616;5.426;2022-12-18T10:10:00;102493.13;;;-4.19;100.00
62420;BME280;48460;51.616;5.426;2022-12-18T10:12:35;102490.13;;;-4.07;100.00
62420;BME280;48460;51.616;5.426;2022-12-18T10:15:19;102477.56;;;-3.98;100.00
62420;BME280;48460;51.616;5.426;2022-12-18T10:17:56;102475.91;;;-3.96;100.00
62420;BME280;48460;51.616;5.426;2022-12-18T10:20:51;102467.53;;;-3.90;100.00
62420;BME280;48460;51.616;5.426;2022-12-18T10:23:43;102481.22;;;-3.91;100.00
62420;BME280;48460;51.616;5.426;2022-12-18T10:26:12;102490.63;;;-3.92;100.00
62420;BME280;48460;51.616;5.426;2022-12-18T10:28:39;102477.88;;;-3.88;100.00
62420;BME280;48460;51.616;5.426;2022-12-18T10:31:25;102475.63;;;-3.79;100.00
62420;BME280;48460;51.616;5.426;2022-12-18T10:33:55;102463.91;;;-3.71;100.00
62420;BME280;48460;51.616;5.426;2022-12-18T10:36:23;102461.63;;;-3.62;100.00
62420;BME280;48460;51.616;5.426;2022-12-18T10:38:51;102458.50;;;-3.52;100.00
62420;BME280;48460;51.616;5.426;2022-12-18T10:44:11;102430.78;;;-3.33;100.00
62420;BME280;48460;51.616;5.426;2022-12-18T10:46:39;102423.13;;;-3.32;100.00
62420;BME280;48460;51.616;5.426;2022-12-18T10:49:29;102428.38;;;-3.29;100.00
62420;BME280;48460;51.616;5.426;2022-12-18T10:52:18;102428.47;;;-3.26;100.00
62420;BME280;48460;51.616;5.426;2022-12-18T10:55:12;102414.22;;;-3.14;100.00
62420;BME280;48460;51.616;5.426;2022-12-18T10:57:41;102416.66;;;-3.19;100.00
62420;BME280;48460;51.616;5.426;2022-12-18T11:00:29;102415.84;;;-3.18;100.00
62420;BME280;48460;51.616;5.426;2022-12-18T11:02:57;102409.63;;;-3.25;100.00
62420;BME280;48460;51.616;5.426;2022-12-18T11:05:29;102399.34;;;-3.25;100.00
62420;BME280;48460;51.616;5.426;2022-12-18T11:07:55;102407.94;;;-3.24;100.00
62420;BME280;48460;51.616;5.426;2022-12-18T11:10:30;102411.47;;;-3.21;100.00
62420;BME280;48460;51.616;5.426;2022-12-18T11:12:56;102405.47;;;-3.21;100.00
62420;BME280;48460;51.616;5.426;2022-12-18T11:15:36;102410.69;;;-3.18;100.00
62420;BME280;48460;51.616;5.426;2022-12-18T11:18:02;102408.22;;;-3.15;100.00
62420;BME280;48460;51.616;5.426;2022-12-18T11:20:33;102409.97;;;-3.12;100.00
62420;BME280;48460;51.616;5.426;2022-12-18T11:23:04;102410.09;;;-3.09;100.00
62420;BME280;48460;51.616;5.426;2022-12-18T11:25:33;102393.91;;;-3.05;100.00
62420;BME280;48460;51.616;5.426;2022-12-18T11:28:01;102382.06;;;-3.00;100.00
62420;BME280;48460;51.616;5.426;2022-12-18T11:30:33;102389.81;;;-2.99;100.00
62420;BME280;48460;51.616;5.426;2022-12-18T11:33:13;102378.81;;;-2.93;100.00
62420;BME280;48460;51.616;5.426;2022-12-18T11:38:32;102392.72;;;-2.86;100.00
62420;BME280;48460;51.616;5.426;2022-12-18T11:41:29;102382.59;;;-2.80;100.00
62420;BME280;48460;51.616;5.426;2022-12-18T11:44:32;102375.00;;;-2.76;100.00
62420;BME280;48460;51.616;5.426;2022-12-18T11:47:37;102381.97;;;-2.73;100.00
62420;BME280;48460;51.616;5.426;2022-12-18T11:50:14;102376.81;;;-2.73;100.00
62420;BME280;48460;51.616;5.426;2022-12-18T11:52:41;102366.63;;;-2.68;100.00
62420;BME280;48460;51.616;5.426;2022-12-18T11:58:19;102369.28;;;-2.65;100.00
62420;BME280;48460;51.616;5.426;2022-12-18T12:04:01;102357.31;;;-2.63;100.00
62420;BME280;48460;51.616;5.426;2022-12-18T12:06:45;102354.88;;;-2.59;100.00
62420;BME280;48460;51.616;5.426;2022-12-18T12:24:10;102331.97;;;-2.48;100.00
62420;BME280;48460;51.616;5.426;2022-12-18T12:30:07;102328.72;;;-2.41;100.00
62420;BME280;48460;51.616;5.426;2022-12-18T12:38:13;102293.63;;;-2.36;100.00
62420;BME280;48460;51.616;5.426;2022-12-18T12:40:48;102297.97;;;-2.33;100.00
62420;BME280;48460;51.616;5.426;2022-12-18T12:49:09;102274.84;;;-2.32;100.00
62420;BME280;48460;51.616;5.426;2022-12-18T12:51:42;102275.75;;;-2.30;100.00
62420;BME280;48460;51.616;5.426;2022-12-18T12:54:40;102271.44;;;-2.31;100.00
62420;BME280;48460;51.616;5.426;2022-12-18T12:57:47;102265.50;;;-2.26;100.00
62420;BME280;48460;51.616;5.426;2022-12-18T13:00:18;102263.78;;;-2.27;100.00
62420;BME280;48460;51.616;5.426;2022-12-18T13:08:03;102262.19;;;-2.22;100.00
62420;BME280;48460;51.616;5.426;2022-12-18T13:13:54;102251.22;;;-2.14;100.00
62420;BME280;48460;51.616;5.426;2022-12-18T13:16:24;102248.56;;;-2.17;100.00
62420;BME280;48460;51.616;5.426;2022-12-18T13:18:54;102245.09;;;-2.19;100.00
62420;BME280;48460;51.616;5.426;2022-12-18T13:21:35;102242.50;;;-2.19;100.00
62420;BME280;48460;51.616;5.426;2022-12-18T13:24:24;102249.38;;;-2.19;100.00
62420;BME280;48460;51.616;5.426;2022-12-18T13:26:50;102253.59;;;-2.21;100.00
62420;BME280;48460;51.616;5.426;2022-12-18T13:29:53;102257.91;;;-2.20;100.00
62420;BME280;48460;51.616;5.426;2022-12-18T13:36:03;102245.03;;;-2.20;100.00
62420;BME280;48460;51.616;5.426;2022-12-18T13:38:38;102238.19;;;-2.20;100.00
62420;BME280;48460;51.616;5.426;2022-12-18T14:42:28;102203.19;;;-2.10;100.00
62420;BME280;48460;51.616;5.426;2022-12-18T15:00:47;102203.19;;;-2.09;100.00
62420;BME280;48460;51.616;5.426;2022-12-18T15:03:29;102195.53;;;-2.07;100.00
62420;BME280;48460;51.616;5.426;2022-12-18T15:05:55;102196.38;;;-2.07;100.00
62420;BME280;48460;51.616;5.426;2022-12-18T15:08:35;102199.00;;;-2.05;100.00
62420;BME280;48460;51.616;5.426;2022-12-18T15:11:01;102187.81;;;-2.06;100.00
62420;BME280;48460;51.616;5.426;2022-12-18T15:13:27;102181.84;;;-2.03;100.00
62420;BME280;48460;51.616;5.426;2022-12-18T15:15:56;102179.34;;;-2.00;100.00
62420;BME280;48460;51.616;5.426;2022-12-18T15:18:42;102180.13;;;-2.02;100.00
62420;BME280;48460;51.616;5.426;2022-12-18T15:21:11;102176.69;;;-2.03;100.00
62420;BME280;48460;51.616;5.426;2022-12-18T15:26:12;102178.47;;;-2.02;100.00
62420;BME280;48460;51.616;5.426;2022-12-18T15:28:54;102173.31;;;-2.02;100.00
62420;BME280;48460;51.616;5.426;2022-12-18T15:31:32;102163.00;;;-2.00;100.00
62420;BME280;48460;51.616;5.426;2022-12-18T15:37:22;102165.66;;;-1.97;100.00
62420;BME280;48460;51.616;5.426;2022-12-18T15:39:48;102168.28;;;-1.96;100.00
62420;BME280;48460;51.616;5.426;2022-12-18T15:42:13;102166.50;;;-1.97;99.43
62420;BME280;48460;51.616;5.426;2022-12-18T15:44:57;102150.22;;;-1.96;98.60
62420;BME280;48460;51.616;5.426;2022-12-18T15:50:31;102157.16;;;-1.93;99.17
62420;BME280;48460;51.616;5.426;2022-12-18T15:52:59;102144.22;;;-1.95;99.01
62420;BME280;48460;51.616;5.426;2022-12-18T15:55:27;102144.22;;;-1.95;99.55
62420;BME280;48460;51.616;5.426;2022-12-18T15:58:11;102147.72;;;-1.93;98.78
62420;BME280;48460;51.616;5.426;2022-12-18T16:00:40;102141.69;;;-1.93;98.81
62420;BME280;48460;51.616;5.426;2022-12-18T16:03:06;102125.34;;;-1.94;98.49
62420;BME280;48460;51.616;5.426;2022-12-18T16:05:34;102131.44;;;-1.90;98.79
62420;BME280;48460;51.616;5.426;2022-12-18T16:08:00;102126.28;;;-1.90;98.20
62420;BME280;48460;51.616;5.426;2022-12-18T16:10:26;102145.25;;;-1.87;98.22
62420;BME280;48460;51.616;5.426;2022-12-18T16:12:52;102137.47;;;-1.88;97.72
62420;BME280;48460;51.616;5.426;2022-12-18T16:15:17;102129.81;;;-1.85;98.66
62420;BME280;48460;51.616;5.426;2022-12-18T16:17:43;102117.72;;;-1.88;97.75
62420;BME280;48460;51.616;5.426;2022-12-18T16:20:18;102113.47;;;-1.86;98.58
62420;BME280;48460;51.616;5.426;2022-12-18T16:22:45;102121.25;;;-1.83;98.00
62420;BME280;48460;51.616;5.426;2022-12-18T16:25:27;102111.91;;;-1.77;97.75
62420;BME280;48460;51.616;5.426;2022-12-18T16:27:54;102101.56;;;-1.79;96.56
62420;BME280;48460;51.616;5.426;2022-12-18T16:30:38;102091.25;;;-1.79;97.30
62420;BME280;48460;51.616;5.426;2022-12-18T16:33:03;102089.63;;;-1.75;97.02